Time;durP1;ratioP1;P1;durP2;ratioP2;P2;SDS_P1;SDS_P2;PMS_P1;PMS_P2;Temp;Humidity;BMP_temperature;BMP_pressure;BME280_temperature;BME280_humidity;BME280_pressure;Samples;Min_cycle;Max_cycle;Signal;HPM_P1;HPM_P2
2023/08/14 00:00:50;;;;;;;16.80;8.20;;;;;20.90;96573.00;;;;8286278;28;20312;-73
2023/08/14 00:05:03;;;;;;;13.93;8.90;;;;;20.90;96568.00;;;;8287225;28;20281;-73
2023/08/14 00:09:08;;;;;;;12.55;7.72;;;;;20.80;96561.00;;;;8295116;28;20293;-73
2023/08/14 00:13:20;;;;;;;13.25;8.93;;;;;20.70;96555.00;;;;8275266;28;20268;-73
2023/08/14 00:17:26;;;;;;;13.45;8.90;;;;;20.70;96547.00;;;;8290060;28;20198;-74
2023/08/14 00:21:33;;;;;;;11.20;9.18;;;;;20.60;96538.00;;;;8290398;28;20202;-73
2023/08/14 00:25:42;;;;;;;15.55;9.15;;;;;20.60;96530.00;;;;8286634;28;20201;-74
2023/08/14 00:29:45;;;;;;;14.98;8.35;;;;;20.50;96518.00;;;;8287243;28;20205;-74
2023/08/14 00:33:54;;;;;;;15.07;8.00;;;;;20.50;96503.00;;;;8300930;28;20209;-73
2023/08/14 00:37:59;;;;;;;11.63;8.45;;;;;20.40;96503.00;;;;8292643;28;20794;-74
2023/08/14 00:42:03;;;;;;;13.07;8.60;;;;;20.30;96491.00;;;;8290349;28;20288;-74
2023/08/14 00:46:07;;;;;;;18.35;9.52;;;;;20.30;96492.00;;;;8294023;28;20217;-74
2023/08/14 00:50:11;;;;;;;12.18;8.70;;;;;20.30;96488.00;;;;8295041;28;20202;-74
2023/08/14 00:54:16;;;;;;;13.13;8.98;;;;;20.30;96480.00;;;;8280596;28;20650;-72
2023/08/14 00:58:21;;;;;;;15.02;9.30;;;;;20.30;96480.00;;;;8294305;28;20316;-73
2023/08/14 01:02:26;;;;;;;18.13;10.05;;;;;20.20;96486.00;;;;8293675;28;20232;-72
2023/08/14 01:06:32;;;;;;;18.30;9.35;;;;;20.30;96498.00;;;;8278802;28;20699;-72
2023/08/14 01:10:49;;;;;;;16.25;8.32;;;;;20.20;96498.00;;;;8293430;28;20201;-74
2023/08/14 01:15:00;;;;;;;16.17;9.20;;;;;20.20;96499.00;;;;8296270;28;20206;-73
2023/08/14 01:19:09;;;;;;;17.00;9.30;;;;;20.10;96503.00;;;;8299722;28;20242;-73
2023/08/14 01:23:26;;;;;;;17.50;9.60;;;;;20.00;96496.00;;;;8295062;28;20288;-74
2023/08/14 01:27:31;;;;;;;16.85;9.65;;;;;19.90;96483.00;;;;8277227;28;20285;-73
2023/08/14 01:31:36;;;;;;;19.33;10.65;;;;;19.90;96478.00;;;;8315565;28;20198;-74
2023/08/14 01:35:43;;;;;;;20.92;11.10;;;;;19.80;96462.00;;;;8321553;28;20194;-74
2023/08/14 01:39:54;;;;;;;25.23;11.85;;;;;19.80;96467.00;;;;8294895;28;20228;-74
2023/08/14 01:44:01;;;;;;;19.02;10.52;;;;;19.80;96465.00;;;;8291349;28;20907;-73
2023/08/14 01:48:08;;;;;;;16.63;11.02;;;;;19.80;96458.00;;;;8299710;28;20194;-73
2023/08/14 01:52:12;;;;;;;16.63;10.30;;;;;19.70;96447.00;;;;8296467;28;20297;-73
2023/08/14 01:56:15;;;;;;;20.75;11.07;;;;;19.70;96448.00;;;;8296884;28;20204;-73
2023/08/14 02:00:21;;;;;;;16.55;11.23;;;;;19.70;96450.00;;;;8306243;28;20229;-73
2023/08/14 02:04:24;;;;;;;20.52;11.38;;;;;19.70;96454.00;;;;8300530;28;20254;-73
2023/08/14 02:08:27;;;;;;;20.83;12.98;;;;;19.70;96454.00;;;;8291381;28;20202;-73
2023/08/14 02:12:31;;;;;;;21.23;12.10;;;;;19.80;96459.00;;;;8295852;28;20293;-73
2023/08/14 02:16:39;;;;;;;22.63;12.63;;;;;19.80;96462.00;;;;8304387;28;20209;-73
2023/08/14 02:20:46;;;;;;;24.17;12.20;;;;;19.90;96462.00;;;;8312769;28;20229;-73
2023/08/14 02:24:50;;;;;;;25.38;12.18;;;;;19.90;96459.00;;;;8300057;28;20238;-73
2023/08/14 02:28:53;;;;;;;24.67;11.55;;;;;19.80;96450.00;;;;8299589;28;20587;-73
2023/08/14 02:32:58;;;;;;;25.33;12.70;;;;;19.80;96458.00;;;;8287307;28;20202;-73
2023/08/14 02:37:02;;;;;;;22.58;11.82;;;;;19.80;96467.00;;;;8303178;28;20194;-74
2023/08/14 02:41:07;;;;;;;22.83;13.18;;;;;19.70;96468.00;;;;8309329;28;20221;-73
2023/08/14 02:45:10;;;;;;;23.20;13.75;;;;;19.80;96470.00;;;;8299903;28;20222;-73
2023/08/14 02:49:20;;;;;;;28.17;13.30;;;;;19.80;96469.00;;;;8292541;28;20209;-74
2023/08/14 02:53:24;;;;;;;22.52;12.75;;;;;19.80;96478.00;;;;8299168;28;20198;-73
2023/08/14 02:57:29;;;;;;;20.35;11.80;;;;;19.80;96472.00;;;;8291375;28;20565;-73
2023/08/14 03:01:32;;;;;;;27.80;12.30;;;;;19.80;96469.00;;;;8319830;23;20270;-73
2023/08/14 03:05:38;;;;;;;24.00;11.80;;;;;19.70;96463.00;;;;8338695;28;20201;-73
2023/08/14 03:09:41;;;;;;;20.45;11.82;;;;;19.70;96472.00;;;;8337920;28;20434;-73
2023/08/14 03:13:48;;;;;;;27.65;14.00;;;;;19.70;96485.00;;;;8339450;28;20196;-73
2023/08/14 03:17:52;;;;;;;23.42;13.63;;;;;19.80;96493.00;;;;8335006;28;20661;-72
2023/08/14 03:21:56;;;;;;;22.70;13.00;;;;;19.80;96483.00;;;;8346325;28;20255;-73
2023/08/14 03:25:59;;;;;;;26.00;13.38;;;;;19.90;96484.00;;;;8345540;28;20204;-73
2023/08/14 03:30:08;;;;;;;26.98;14.00;;;;;20.10;96486.00;;;;8334154;28;20198;-71
2023/08/14 03:34:14;;;;;;;28.02;13.23;;;;;20.20;96476.00;;;;8337273;28;20627;-72
2023/08/14 03:38:22;;;;;;;33.83;15.05;;;;;20.20;96488.00;;;;8341813;28;20205;-72
2023/08/14 03:42:28;;;;;;;25.77;13.98;;;;;20.30;96476.00;;;;8345880;28;20248;-70
2023/08/14 03:46:33;;;;;;;23.60;14.30;;;;;20.30;96484.00;;;;8328837;28;20285;-72
2023/08/14 03:50:36;;;;;;;27.33;14.05;;;;;20.30;96484.00;;;;8335662;28;20656;-71
2023/08/14 03:54:41;;;;;;;23.55;13.15;;;;;20.30;96475.00;;;;8345003;28;20295;-72
2023/08/14 03:58:46;;;;;;;25.45;14.00;;;;;20.30;96467.00;;;;8341049;28;20386;-71
2023/08/14 04:02:51;;;;;;;26.02;13.77;;;;;20.30;96468.00;;;;8344274;28;20298;-72
2023/08/14 04:06:54;;;;;;;29.13;14.38;;;;;20.30;96466.00;;;;8342618;28;20201;-73
2023/08/14 04:10:59;;;;;;;31.52;15.45;;;;;20.30;96458.00;;;;8329052;28;20205;-72
2023/08/14 04:15:15;;;;;;;26.33;14.07;;;;;20.40;96460.00;;;;8329466;28;20204;-73
2023/08/14 04:19:19;;;;;;;23.02;13.90;;;;;20.40;96449.00;;;;8338908;28;20445;-73
2023/08/14 04:23:28;;;;;;;25.00;14.82;;;;;20.50;96459.00;;;;8311958;28;20736;-72
2023/08/14 04:27:36;;;;;;;27.27;14.45;;;;;20.60;96448.00;;;;8308238;28;20267;-73
2023/08/14 04:31:41;;;;;;;24.90;14.30;;;;;20.60;96446.00;;;;8304169;28;20196;-74
2023/08/14 04:35:45;;;;;;;22.58;13.48;;;;;20.70;96451.00;;;;8326748;28;20205;-72
2023/08/14 04:39:49;;;;;;;24.55;14.00;;;;;20.70;96447.00;;;;8318956;28;20764;-74
2023/08/14 04:43:57;;;;;;;24.15;13.50;;;;;20.80;96442.00;;;;8311626;28;20205;-73
2023/08/14 04:48:00;;;;;;;26.27;13.15;;;;;20.90;96440.00;;;;8315324;28;20737;-73
2023/08/14 04:52:04;;;;;;;23.20;13.55;;;;;20.90;96431.00;;;;8320692;28;20201;-74
2023/08/14 04:56:07;;;;;;;21.48;13.13;;;;;20.90;96434.00;;;;8312801;28;20207;-74
2023/08/14 05:00:16;;;;;;;20.48;12.65;;;;;21.10;96475.00;;;;8307742;28;20256;-74
2023/08/14 05:04:19;;;;;;;17.80;10.52;;;;;21.00;96473.00;;;;8312091;28;20344;-74
2023/08/14 05:08:22;;;;;;;17.35;10.25;;;;;20.90;96467.00;;;;8316418;28;20202;-72
2023/08/14 05:12:27;;;;;;;17.65;10.45;;;;;20.90;96441.00;;;;8315361;28;20201;-72
2023/08/14 05:16:31;;;;;;;16.90;10.23;;;;;20.90;96451.00;;;;8323020;28;20201;-73
2023/08/14 05:20:35;;;;;;;15.88;9.93;;;;;21.00;96457.00;;;;8331870;28;20228;-74
2023/08/14 05:24:38;;;;;;;18.30;9.73;;;;;21.00;96484.00;;;;8332144;28;20197;-72
2023/08/14 05:28:43;;;;;;;13.50;8.82;;;;;21.10;96483.00;;;;8327041;28;20251;-74
2023/08/14 05:32:51;;;;;;;15.18;9.70;;;;;21.20;96487.00;;;;8311506;28;21078;-73
2023/08/14 05:36:56;;;;;;;14.75;10.00;;;;;21.40;96487.00;;;;8331953;28;20209;-74
2023/08/14 05:41:01;;;;;;;13.43;9.55;;;;;21.70;96489.00;;;;8341329;28;20234;-74
2023/08/14 05:45:12;;;;;;;11.27;8.32;;;;;22.00;96484.00;;;;8331875;28;20287;-72
2023/08/14 05:49:17;;;;;;;13.23;8.45;;;;;22.20;96486.00;;;;8329591;28;20276;-73
2023/08/14 05:53:23;;;;;;;13.32;8.75;;;;;22.40;96489.00;;;;8323399;28;20205;-74
2023/08/14 05:57:26;;;;;;;13.88;8.07;;;;;22.60;96486.00;;;;8325779;28;20280;-74
2023/08/14 06:01:30;;;;;;;10.75;7.80;;;;;22.90;96488.00;;;;8332686;28;20639;-74
2023/08/14 06:05:35;;;;;;;10.77;8.40;;;;;23.20;96492.00;;;;8343169;28;20201;-73
2023/08/14 06:09:42;;;;;;;10.05;7.40;;;;;23.50;96483.00;;;;8339804;28;20193;-71
2023/08/14 06:13:50;;;;;;;9.57;7.03;;;;;23.80;96470.00;;;;8340488;28;20202;-72
2023/08/14 06:17:57;;;;;;;7.88;6.47;;;;;24.20;96453.00;;;;8340767;28;20288;-73
2023/08/14 06:22:02;;;;;;;9.32;4.97;;;;;24.50;96442.00;;;;8341044;28;20235;-72
2023/08/14 06:26:05;;;;;;;9.52;4.78;;;;;24.60;96454.00;;;;8341164;28;20216;-72
2023/08/14 06:30:14;;;;;;;6.60;4.82;;;;;24.60;96453.00;;;;8336145;28;20192;-72
2023/08/14 06:34:17;;;;;;;4.05;3.65;;;;;24.80;96457.00;;;;8341423;28;20201;-72
2023/08/14 06:38:22;;;;;;;3.78;3.47;;;;;25.30;96469.00;;;;8347146;28;20200;-72
2023/08/14 06:42:26;;;;;;;4.38;3.78;;;;;25.70;96475.00;;;;8333689;28;20598;-72
2023/08/14 06:46:29;;;;;;;3.78;3.42;;;;;26.00;96497.00;;;;8340271;28;20201;-73
2023/08/14 06:50:36;;;;;;;4.90;2.85;;;;;26.40;96505.00;;;;8327243;28;20278;-73
2023/08/14 06:54:40;;;;;;;2.75;2.60;;;;;26.60;96511.00;;;;8328693;28;20903;-72
2023/08/14 06:58:46;;;;;;;5.10;2.92;;;;;27.10;96515.00;;;;8345250;28;20196;-74
2023/08/14 07:02:57;;;;;;;4.05;3.22;;;;;27.40;96513.00;;;;8340117;28;21405;-74
2023/08/14 07:07:02;;;;;;;3.80;2.90;;;;;27.50;96526.00;;;;8339360;28;20288;-74
2023/08/14 07:11:07;;;;;;;2.83;2.63;;;;;27.50;96523.00;;;;8340226;28;20201;-74
2023/08/14 07:15:13;;;;;;;2.53;2.38;;;;;27.50;96511.00;;;;8326239;28;20200;-76
2023/08/14 07:19:17;;;;;;;2.95;2.75;;;;;27.60;96512.00;;;;8337438;28;20227;-74
2023/08/14 07:23:25;;;;;;;3.97;2.92;;;;;28.20;96499.00;;;;8332400;28;21177;-74
2023/08/14 07:27:32;;;;;;;3.92;2.78;;;;;29.20;96501.00;;;;8337605;28;20201;-73
2023/08/14 07:31:36;;;;;;;3.67;2.70;;;;;29.80;96497.00;;;;8332391;28;20202;-73
2023/08/14 07:35:39;;;;;;;4.43;2.63;;;;;29.40;96498.00;;;;8325586;28;20197;-74
2023/08/14 07:39:44;;;;;;;4.32;2.85;;;;;29.70;96501.00;;;;8343212;28;20283;-77
2023/08/14 07:43:54;;;;;;;3.90;2.72;;;;;29.70;96511.00;;;;8333593;28;20975;-77
2023/08/14 07:47:57;;;;;;;2.75;2.55;;;;;30.00;96502.00;;;;8323292;28;20205;-78
2023/08/14 07:52:01;;;;;;;3.40;2.38;;;;;30.90;96494.00;;;;8331889;28;20209;-81
2023/08/14 07:56:05;;;;;;;3.63;2.55;;;;;31.20;96510.00;;;;8335507;28;20201;-80
2023/08/14 08:00:11;;;;;;;5.00;2.53;;;;;31.30;96510.00;;;;8326434;28;20201;-78
2023/08/14 08:04:14;;;;;;;2.72;2.50;;;;;30.90;96503.00;;;;8333496;28;20225;-77
2023/08/14 08:08:20;;;;;;;2.60;2.13;;;;;31.40;96491.00;;;;8333261;28;20201;-75
2023/08/14 08:12:25;;;;;;;2.20;2.00;;;;;31.90;96491.00;;;;8331053;28;20241;-77
2023/08/14 08:16:30;;;;;;;3.05;2.30;;;;;32.30;96498.00;;;;8336337;28;20739;-78
2023/08/14 08:20:36;;;;;;;2.13;2.03;;;;;32.80;96508.00;;;;8336106;28;20236;-73
2023/08/14 08:24:44;;;;;;;4.65;1.83;;;;;32.90;96503.00;;;;8340761;28;20199;-79
2023/08/14 08:28:47;;;;;;;2.97;1.90;;;;;32.80;96513.00;;;;8331751;28;20262;-77
2023/08/14 08:32:59;;;;;;;1.77;1.70;;;;;33.00;96512.00;;;;8331066;28;20223;-77
2023/08/14 08:37:06;;;;;;;1.88;1.70;;;;;33.30;96507.00;;;;8326205;28;20267;-74
2023/08/14 08:41:10;;;;;;;1.75;1.65;;;;;33.60;96507.00;;;;8328747;28;20311;-74
2023/08/14 08:45:16;;;;;;;3.17;2.03;;;;;33.10;96504.00;;;;8328893;28;20207;-74
2023/08/14 08:49:23;;;;;;;2.00;1.90;;;;;32.60;96502.00;;;;8332084;28;20207;-72
2023/08/14 08:53:31;;;;;;;3.38;2.10;;;;;32.20;96502.00;;;;8309044;28;20288;-72
2023/08/14 08:57:42;;;;;;;1.98;1.88;;;;;32.70;96504.00;;;;8329538;28;20213;-72
2023/08/14 09:01:50;;;;;;;4.57;2.38;;;;;34.20;96508.00;;;;8315241;28;20804;-72
2023/08/14 09:06:00;;;;;;;2.15;1.95;;;;;35.00;96509.00;;;;8324172;28;20250;-73
2023/08/14 09:10:05;;;;;;;3.85;2.17;;;;;35.00;96511.00;;;;8333874;28;20193;-73
2023/08/14 09:14:11;;;;;;;4.28;1.80;;;;;35.00;96505.00;;;;8327805;28;20200;-72
2023/08/14 09:18:16;;;;;;;1.98;1.70;;;;;35.00;96506.00;;;;8329661;28;20270;-72
2023/08/14 09:22:25;;;;;;;4.00;1.90;;;;;35.10;96505.00;;;;8328055;28;20224;-73
2023/08/14 09:26:30;;;;;;;1.80;1.70;;;;;35.20;96506.00;;;;8328318;28;21163;-73
2023/08/14 09:30:36;;;;;;;1.83;1.73;;;;;35.40;96500.00;;;;8329370;28;20308;-73
2023/08/14 09:34:39;;;;;;;1.80;1.70;;;;;35.70;96516.00;;;;8332390;28;20209;-73
2023/08/14 09:38:46;;;;;;;4.53;1.75;;;;;35.90;96519.00;;;;8314384;28;20198;-73
2023/08/14 09:42:50;;;;;;;2.45;1.73;;;;;35.90;96516.00;;;;8339903;28;20221;-71
2023/08/14 09:46:54;;;;;;;2.67;1.70;;;;;36.00;96512.00;;;;8338907;28;20208;-73
2023/08/14 09:50:59;;;;;;;2.08;1.40;;;;;36.50;96506.00;;;;8339615;28;20205;-73
2023/08/14 09:55:04;;;;;;;2.53;1.40;;;;;36.70;96506.00;;;;8337085;28;20207;-73
2023/08/14 09:59:13;;;;;;;1.70;1.60;;;;;36.80;96512.00;;;;8335978;28;20205;-72
2023/08/14 10:03:18;;;;;;;1.88;1.70;;;;;36.90;96505.00;;;;8331510;28;20746;-73
2023/08/14 10:07:26;;;;;;;2.15;1.67;;;;;37.00;96499.00;;;;8339342;28;20228;-72
2023/08/14 10:11:37;;;;;;;2.28;1.85;;;;;37.20;96498.00;;;;8334180;28;20209;-72
2023/08/14 10:15:50;;;;;;;2.25;1.80;;;;;37.30;96489.00;;;;8327324;28;20887;-73
2023/08/14 10:19:57;;;;;;;2.58;1.80;;;;;37.40;96493.00;;;;8330465;28;20259;-72
2023/08/14 10:24:09;;;;;;;1.50;1.50;;;;;37.60;96498.00;;;;8330774;28;20224;-73
2023/08/14 10:28:14;;;;;;;3.42;1.67;;;;;37.60;96491.00;;;;8339577;28;20304;-73
2023/08/14 10:32:18;;;;;;;2.10;1.70;;;;;37.70;96496.00;;;;8327981;28;20558;-72
2023/08/14 10:36:22;;;;;;;4.25;1.83;;;;;37.60;96484.00;;;;8329019;28;20270;-71
2023/08/14 10:40:29;;;;;;;1.52;1.52;;;;;37.80;96480.00;;;;8335679;28;20204;-73
2023/08/14 10:44:37;;;;;;;1.90;1.70;;;;;37.60;96483.00;;;;8334820;28;20340;-72
2023/08/14 10:48:42;;;;;;;5.82;2.20;;;;;37.90;96478.00;;;;8329536;28;20258;-72
2023/08/14 10:52:49;;;;;;;2.03;1.80;;;;;38.30;96485.00;;;;8341777;28;20736;-72
2023/08/14 10:57:02;;;;;;;2.25;1.70;;;;;38.40;96483.00;;;;8334094;28;20204;-73
2023/08/14 11:01:11;;;;;;;2.13;2.00;;;;;38.60;96480.00;;;;8327352;28;20233;-73
2023/08/14 11:05:16;;;;;;;2.55;1.88;;;;;38.70;96473.00;;;;8332150;28;20228;-72
2023/08/14 11:09:23;;;;;;;3.72;2.13;;;;;38.60;96474.00;;;;8329164;28;20193;-72
2023/08/14 11:13:29;;;;;;;4.85;2.15;;;;;39.00;96468.00;;;;8339640;28;20288;-72
2023/08/14 11:17:36;;;;;;;1.88;1.77;;;;;39.50;96473.00;;;;8336338;28;20205;-71
2023/08/14 11:21:39;;;;;;;3.67;2.45;;;;;39.90;96466.00;;;;8335204;28;20747;-72
2023/08/14 11:25:43;;;;;;;2.15;2.00;;;;;39.60;96464.00;;;;8332965;28;20197;-72
2023/08/14 11:29:51;;;;;;;3.92;2.20;;;;;39.90;96461.00;;;;8336088;28;20203;-72
2023/08/14 11:34:02;;;;;;;2.40;2.00;;;;;40.60;96456.00;;;;8342482;28;20224;-72
2023/08/14 11:38:05;;;;;;;3.65;2.25;;;;;40.30;96460.00;;;;8337976;28;20815;-72
2023/08/14 11:42:10;;;;;;;3.85;2.50;;;;;40.00;96457.00;;;;8329754;28;20251;-73
2023/08/14 11:46:14;;;;;;;2.10;1.90;;;;;40.40;96459.00;;;;8313139;28;20220;-73
2023/08/14 11:50:23;;;;;;;2.25;2.00;;;;;40.00;96450.00;;;;8335977;28;20980;-72
2023/08/14 11:54:26;;;;;;;6.85;2.05;;;;;39.50;96453.00;;;;8331562;28;20203;-72
2023/08/14 11:58:32;;;;;;;4.55;2.00;;;;;39.10;96452.00;;;;8335191;28;20291;-72
2023/08/14 12:02:38;;;;;;;2.17;1.90;;;;;38.90;96452.00;;;;8333399;28;20229;-73
2023/08/14 12:06:44;;;;;;;2.92;2.10;;;;;38.70;96462.00;;;;8338402;28;20631;-72
2023/08/14 12:10:50;;;;;;;2.35;2.15;;;;;38.40;96453.00;;;;8329181;28;20204;-72
2023/08/14 12:14:56;;;;;;;6.32;2.20;;;;;38.10;96456.00;;;;8334642;28;20207;-73
2023/08/14 12:18:59;;;;;;;1.90;1.80;;;;;37.80;96448.00;;;;8330998;28;20233;-72
2023/08/14 12:23:14;;;;;;;3.33;2.35;;;;;37.50;96446.00;;;;8328620;28;20715;-73
2023/08/14 12:27:22;;;;;;;2.88;2.08;;;;;37.30;96442.00;;;;8335824;28;20201;-73
2023/08/14 12:31:27;;;;;;;2.10;1.95;;;;;37.50;96444.00;;;;8336319;28;20205;-73
2023/08/14 12:35:31;;;;;;;6.40;2.13;;;;;37.70;96442.00;;;;8325076;28;20224;-73
2023/08/14 12:39:48;;;;;;;2.42;2.22;;;;;37.60;96436.00;;;;8332740;28;20201;-72
2023/08/14 12:43:52;;;;;;;2.17;2.08;;;;;37.70;96447.00;;;;8324590;28;20243;-73
2023/08/14 12:47:55;;;;;;;2.20;2.10;;;;;37.70;96442.00;;;;8332858;28;20217;-73
2023/08/14 12:52:01;;;;;;;9.80;2.67;;;;;37.70;96436.00;;;;8320917;28;20205;-73
2023/08/14 12:56:19;;;;;;;2.45;2.25;;;;;37.70;96429.00;;;;8315144;28;20271;-74
2023/08/14 13:00:27;;;;;;;4.10;2.40;;;;;37.40;96433.00;;;;8328906;28;20209;-73
2023/08/14 13:04:41;;;;;;;4.40;2.10;;;;;37.20;96424.00;;;;8327169;28;20239;-76
2023/08/14 13:08:44;;;;;;;2.40;2.03;;;;;37.30;96419.00;;;;8331639;28;20659;-75
2023/08/14 13:12:54;;;;;;;2.30;2.00;;;;;37.50;96428.00;;;;8332507;28;20259;-76
2023/08/14 13:16:57;;;;;;;3.30;2.08;;;;;37.60;96435.00;;;;8337145;28;20262;-75
2023/08/14 13:21:00;;;;;;;2.92;2.00;;;;;37.40;96430.00;;;;8336696;28;20205;-75
2023/08/14 13:25:04;;;;;;;5.00;2.22;;;;;37.20;96418.00;;;;8345229;28;20235;-76
2023/08/14 13:29:10;;;;;;;2.38;2.17;;;;;37.20;96417.00;;;;8334224;28;20783;-75
2023/08/14 13:33:16;;;;;;;2.88;2.28;;;;;37.40;96424.00;;;;8340666;28;20973;-76
2023/08/14 13:37:20;;;;;;;2.60;2.05;;;;;37.70;96425.00;;;;8334534;28;20211;-76
2023/08/14 13:41:23;;;;;;;5.85;2.33;;;;;37.90;96422.00;;;;8341786;28;20551;-75
2023/08/14 13:45:32;;;;;;;4.55;2.10;;;;;38.00;96419.00;;;;8336529;28;20236;-76
2023/08/14 13:49:35;;;;;;;2.30;2.10;;;;;38.30;96419.00;;;;8349690;28;20275;-73
2023/08/14 13:53:42;;;;;;;3.35;2.40;;;;;38.60;96410.00;;;;8333666;28;20197;-71
2023/08/14 13:57:45;;;;;;;3.58;2.25;;;;;39.50;96412.00;;;;8339442;28;20207;-72
2023/08/14 14:01:52;;;;;;;2.70;2.50;;;;;39.50;96410.00;;;;8347288;28;20224;-73
2023/08/14 14:05:57;;;;;;;2.13;2.03;;;;;39.20;96406.00;;;;8342219;28;20224;-72
2023/08/14 14:10:02;;;;;;;2.00;1.90;;;;;39.00;96404.00;;;;8344871;28;20239;-73
2023/08/14 14:14:10;;;;;;;4.32;2.20;;;;;38.90;96394.00;;;;8343558;28;20200;-73
2023/08/14 14:18:15;;;;;;;3.00;2.30;;;;;38.60;96404.00;;;;8348078;28;20204;-72
2023/08/14 14:22:21;;;;;;;2.20;2.00;;;;;39.10;96398.00;;;;8340160;28;20934;-73
2023/08/14 14:26:26;;;;;;;2.97;1.90;;;;;39.60;96403.00;;;;8344115;28;20785;-73
2023/08/14 14:30:31;;;;;;;2.53;2.38;;;;;39.70;96401.00;;;;8348510;28;20205;-74
2023/08/14 14:34:38;;;;;;;7.70;2.28;;;;;39.50;96394.00;;;;8339084;28;20201;-72
2023/08/14 14:38:41;;;;;;;3.33;2.10;;;;;39.20;96395.00;;;;8345478;28;20292;-72
2023/08/14 14:42:48;;;;;;;2.53;2.33;;;;;38.90;96400.00;;;;8345082;28;20790;-72
2023/08/14 14:46:51;;;;;;;4.13;2.50;;;;;39.20;96395.00;;;;8341007;28;21345;-73
2023/08/14 14:50:56;;;;;;;3.70;2.17;;;;;40.00;96398.00;;;;8347628;28;20207;-72
2023/08/14 14:54:59;;;;;;;2.47;2.10;;;;;40.60;96393.00;;;;8347846;28;20709;-73
2023/08/14 14:59:02;;;;;;;2.55;2.35;;;;;40.90;96389.00;;;;8349454;28;20207;-72
2023/08/14 15:03:08;;;;;;;4.50;2.50;;;;;40.50;96384.00;;;;8349807;28;20231;-73
2023/08/14 15:07:13;;;;;;;2.80;2.25;;;;;40.10;96382.00;;;;8338270;28;20197;-73
2023/08/14 15:11:16;;;;;;;2.85;2.20;;;;;39.80;96386.00;;;;8343024;28;20197;-73
2023/08/14 15:15:21;;;;;;;3.70;2.25;;;;;39.60;96378.00;;;;8344673;28;20293;-73
2023/08/14 15:19:26;;;;;;;2.53;2.42;;;;;39.40;96378.00;;;;8340090;28;20201;-73
2023/08/14 15:23:35;;;;;;;2.30;2.20;;;;;39.40;96377.00;;;;8344929;28;20495;-73
2023/08/14 15:27:38;;;;;;;2.53;2.03;;;;;39.30;96372.00;;;;8321205;28;20927;-73
2023/08/14 15:31:48;;;;;;;2.47;2.20;;;;;39.10;96376.00;;;;8342740;28;20209;-73
2023/08/14 15:35:53;;;;;;;2.38;2.17;;;;;39.10;96368.00;;;;8335043;28;20206;-73
2023/08/14 15:39:57;;;;;;;8.35;2.70;;;;;39.00;96360.00;;;;8342495;28;20211;-73
2023/08/14 15:44:01;;;;;;;2.58;1.90;;;;;38.50;96365.00;;;;8315177;28;20232;-73
2023/08/14 15:48:11;;;;;;;5.97;2.47;;;;;38.20;96354.00;;;;8338431;28;20235;-71
2023/08/14 15:52:20;;;;;;;5.43;2.35;;;;;38.00;96349.00;;;;8336429;28;20666;-71
2023/08/14 15:56:25;;;;;;;2.20;2.10;;;;;37.70;96347.00;;;;8337477;28;21903;-72
2023/08/14 16:00:29;;;;;;;4.70;2.30;;;;;37.60;96353.00;;;;8309646;28;20201;-71
2023/08/14 16:04:32;;;;;;;2.38;2.22;;;;;37.40;96353.00;;;;8332547;28;20333;-72
2023/08/14 16:08:35;;;;;;;2.45;2.05;;;;;37.20;96350.00;;;;8334548;28;20308;-73
2023/08/14 16:12:40;;;;;;;3.88;2.10;;;;;37.10;96347.00;;;;8336696;28;20196;-72
2023/08/14 16:16:43;;;;;;;2.60;2.40;;;;;36.80;96341.00;;;;8338908;28;20733;-72
2023/08/14 16:20:50;;;;;;;4.78;2.63;;;;;36.60;96344.00;;;;8332795;28;20869;-72
2023/08/14 16:24:56;;;;;;;3.40;2.33;;;;;36.20;96344.00;;;;8340780;28;20256;-71
2023/08/14 16:29:07;;;;;;;2.90;2.70;;;;;36.00;96345.00;;;;8326220;28;20211;-71
2023/08/14 16:33:10;;;;;;;4.22;2.63;;;;;35.70;96337.00;;;;8330818;28;20280;-71
2023/08/14 16:37:13;;;;;;;3.25;2.50;;;;;35.50;96343.00;;;;8329059;28;20209;-71
2023/08/14 16:41:16;;;;;;;7.75;2.70;;;;;35.30;96337.00;;;;8333699;28;20274;-71
2023/08/14 16:45:21;;;;;;;5.55;2.63;;;;;35.20;96333.00;;;;8331865;28;20239;-71
2023/08/14 16:49:27;;;;;;;6.00;3.40;;;;;35.00;96333.00;;;;8334714;28;20201;-72
2023/08/14 16:53:33;;;;;;;6.20;2.65;;;;;34.60;96335.00;;;;8322493;28;20681;-72
2023/08/14 16:57:37;;;;;;;4.00;2.70;;;;;34.50;96334.00;;;;8328841;28;20296;-71
2023/08/14 17:01:41;;;;;;;4.22;2.67;;;;;34.60;96338.00;;;;8331055;28;20229;-71
2023/08/14 17:05:47;;;;;;;4.70;2.55;;;;;34.20;96340.00;;;;8335477;28;20829;-72
2023/08/14 17:09:51;;;;;;;6.03;3.00;;;;;33.90;96346.00;;;;8328268;28;20316;-71
2023/08/14 17:13:56;;;;;;;5.68;2.92;;;;;33.60;96351.00;;;;8332831;28;20200;-72
2023/08/14 17:18:01;;;;;;;6.20;2.63;;;;;33.50;96346.00;;;;8323221;28;20209;-70
2023/08/14 17:22:05;;;;;;;6.07;2.88;;;;;33.50;96352.00;;;;8337730;28;20326;-72
2023/08/14 17:26:08;;;;;;;10.80;3.17;;;;;33.40;96352.00;;;;8332132;28;20260;-72
2023/08/14 17:30:21;;;;;;;3.53;2.83;;;;;33.10;96345.00;;;;8336476;28;20312;-71
2023/08/14 17:34:30;;;;;;;6.75;3.03;;;;;33.30;96357.00;;;;8344724;28;20731;-71
2023/08/14 17:38:33;;;;;;;4.30;2.60;;;;;33.20;96365.00;;;;8330344;28;20229;-71
2023/08/14 17:42:39;;;;;;;4.20;2.90;;;;;32.60;96355.00;;;;8333872;28;20235;-70
2023/08/14 17:46:44;;;;;;;8.68;3.22;;;;;32.00;96352.00;;;;8334030;28;20332;-72
2023/08/14 17:50:52;;;;;;;6.85;3.10;;;;;31.50;96350.00;;;;8336869;28;20586;-73
2023/08/14 17:54:56;;;;;;;3.65;2.85;;;;;31.20;96341.00;;;;8334559;28;20208;-71
2023/08/14 17:59:00;;;;;;;11.15;3.30;;;;;30.80;96342.00;;;;8347076;28;20211;-72
2023/08/14 18:03:04;;;;;;;6.32;3.60;;;;;30.30;96351.00;;;;8343267;28;20236;-73
2023/08/14 18:07:09;;;;;;;5.55;3.40;;;;;29.90;96340.00;;;;8347499;28;20282;-70
2023/08/14 18:11:12;;;;;;;9.30;3.65;;;;;29.40;96346.00;;;;8342669;28;20295;-71
2023/08/14 18:15:20;;;;;;;7.30;3.80;;;;;29.10;96355.00;;;;8351529;28;20201;-72
2023/08/14 18:19:24;;;;;;;6.00;3.35;;;;;28.70;96358.00;;;;8348609;28;20243;-71
2023/08/14 18:23:34;;;;;;;9.85;4.45;;;;;28.40;96347.00;;;;8342296;28;20880;-71
2023/08/14 18:27:37;;;;;;;10.57;4.53;;;;;28.30;96346.00;;;;8344743;28;20229;-71
2023/08/14 18:31:40;;;;;;;4.15;3.50;;;;;28.10;96351.00;;;;8339013;28;20213;-74
2023/08/14 18:35:44;;;;;;;5.78;4.00;;;;;27.70;96353.00;;;;8325114;28;20200;-71
2023/08/14 18:39:53;;;;;;;11.07;4.05;;;;;27.30;96345.00;;;;8331770;28;20202;-70
2023/08/14 18:43:56;;;;;;;5.65;3.65;;;;;27.10;96346.00;;;;8342141;28;20205;-70
2023/08/14 18:48:03;;;;;;;5.38;3.67;;;;;27.00;96337.00;;;;8337445;28;20228;-70
2023/08/14 18:52:07;;;;;;;4.63;4.13;;;;;26.90;96338.00;;;;8331735;28;20247;-69
2023/08/14 18:56:15;;;;;;;8.43;3.70;;;;;26.90;96338.00;;;;8335810;28;20213;-70
2023/08/14 19:00:25;;;;;;;7.38;3.95;;;;;26.80;96344.00;;;;8331078;28;20217;-70
2023/08/14 19:04:30;;;;;;;8.50;4.03;;;;;26.70;96350.00;;;;8344072;28;20236;-71
2023/08/14 19:08:44;;;;;;;8.15;4.07;;;;;26.80;96348.00;;;;8346545;28;20744;-71
2023/08/14 19:12:50;;;;;;;4.80;3.38;;;;;26.80;96356.00;;;;8349646;28;20192;-71
2023/08/14 19:16:55;;;;;;;8.05;3.92;;;;;26.80;96353.00;;;;8347766;28;20295;-71
2023/08/14 19:20:59;;;;;;;4.53;3.85;;;;;26.60;96363.00;;;;8347163;28;20244;-71
2023/08/14 19:25:06;;;;;;;8.73;3.60;;;;;26.50;96359.00;;;;8345434;28;20235;-70
2023/08/14 19:29:14;;;;;;;6.35;4.00;;;;;26.30;96359.00;;;;8348130;28;20220;-70
2023/08/14 19:33:23;;;;;;;5.53;3.70;;;;;26.10;96362.00;;;;8348699;28;20618;-71
2023/08/14 19:37:28;;;;;;;4.68;3.88;;;;;26.00;96368.00;;;;8344189;28;20280;-71
2023/08/14 19:41:34;;;;;;;4.47;4.05;;;;;25.80;96355.00;;;;8344160;28;20189;-71
2023/08/14 19:45:38;;;;;;;8.85;4.05;;;;;25.60;96360.00;;;;8340997;28;20254;-71
2023/08/14 19:49:42;;;;;;;9.02;4.45;;;;;25.30;96347.00;;;;8342013;28;20240;-71
2023/08/14 19:53:45;;;;;;;6.85;4.22;;;;;24.90;96340.00;;;;8341010;28;20192;-70
2023/08/14 19:57:48;;;;;;;4.82;3.42;;;;;24.60;96340.00;;;;8340972;28;20228;-71
2023/08/14 20:01:52;;;;;;;5.32;4.10;;;;;24.20;96352.00;;;;8322834;28;20274;-70
2023/08/14 20:05:58;;;;;;;6.35;4.20;;;;;23.90;96346.00;;;;8340051;28;20662;-70
2023/08/14 20:10:06;;;;;;;7.55;3.95;;;;;23.80;96346.00;;;;8347415;28;20284;-71
2023/08/14 20:14:15;;;;;;;6.03;4.25;;;;;23.60;96353.00;;;;8327579;28;20255;-71
2023/08/14 20:18:20;;;;;;;6.95;4.70;;;;;23.50;96362.00;;;;8322678;28;20211;-70
2023/08/14 20:22:24;;;;;;;6.43;4.18;;;;;23.40;96355.00;;;;8331884;28;20213;-73